ADDS METAR Data INFO
IDs: Format: Raw Decoded Include TAF

Data at: 1042 UTC 19 Oct 2017

KFOT 191035Z AUTO 13012KT 10SM CLR 11/10 A2995 RMK AO1
KFOT 191015Z AUTO 12011KT 10SM SCT022 11/10 A2994 RMK AO1
KFOT 190955Z AUTO 12012KT 10SM BKN024 OVC032 11/10 A2995 RMK AO1
KFOT 190935Z AUTO 11010KT 10SM OVC030 11/11 A2996 RMK AO1
KFOT 190915Z AUTO 12006KT 10SM OVC034 11/11 A2998 RMK AO1
KFOT 190855Z AUTO 11004KT 10SM FEW018 OVC034 11/10 A2998 RMK AO1
KFOT 190835Z AUTO 11004KT 10SM OVC018 11/11 A2998 RMK AO1
KFOT 190815Z AUTO 19003KT 10SM OVC018 12/11 A2999 RMK AO1
KFOT 190755Z AUTO 00000KT 9SM OVC020 12/11 A2999 RMK AO1
KFOT 190735Z AUTO 00000KT 10SM OVC020 12/11 A3000 RMK AO1
KFOT 190715Z AUTO 00000KT 10SM OVC018 12/11 A3000 RMK AO1
KFOT 190655Z AUTO 00000KT 10SM OVC014 12/11 A2999 RMK AO1
KFOT 190635Z AUTO 34003KT 10SM OVC012 12/12 A3000 RMK AO1
KFOT 190615Z AUTO 00000KT 10SM OVC012 12/12 A2999 RMK AO1
KFOT 190555Z AUTO 32003KT 10SM OVC010 12/12 A2999 RMK AO1
KFOT 190535Z AUTO 00000KT 10SM OVC012 12/12 A2998 RMK AO1
KFOT 190515Z AUTO 00000KT 10SM OVC012 12/12 A2999 RMK AO1
KFOT 190455Z AUTO 00000KT 10SM SCT004 OVC014 12/12 A2998 RMK AO1
KFOT 190435Z AUTO 00000KT 9SM OVC003 12/12 A2998 RMK AO1
KFOT 190415Z AUTO 00000KT 1 3/4SM BKN002 OVC016 12/12 A2999 RMK AO1
KFOT 190355Z AUTO 14003KT 10SM OVC017 12/12 A2999 RMK AO1
KFOT 190335Z AUTO 1/2SM BKN015 OVC020 12/12 A3001 RMK AO1
KFOT 190315Z AUTO 00000KT 10SM FEW004 SCT015 OVC023 12/12 A3002 RMK AO1
KFOT 190255Z AUTO 35004KT 10SM BKN003 OVC015 12/12 A3002 RMK AO1
KFOT 190235Z AUTO 34006KT 10SM BKN003 OVC018 12/12 A3003 RMK AO1
KFOT 190215Z AUTO 33006KT 10SM OVC003 12/12 A3003 RMK AO1
KFOT 190155Z AUTO 32007KT 10SM OVC003 12/12 A3003 RMK AO1
KFOT 190135Z AUTO 31009KT 10SM BKN003 BKN008 OVC019 13/12 A3003 RMK AO1
KFOT 190115Z AUTO 33007KT 10SM FEW004 SCT008 BKN013 13/12 A3003 RMK AO1
KFOT 190055Z AUTO 32009KT 10SM FEW004 OVC010 13/12 A3003 RMK AO1
KFOT 190035Z AUTO 32009KT 10SM BKN012 BKN017 14/12 A3003 RMK AO1
KFOT 190015Z AUTO 31010KT 10SM FEW012 14/12 A3003 RMK AO1
KFOT 182355Z AUTO 31010KT 10SM CLR 15/12 A3003 RMK AO1
KFOT 182335Z AUTO 31008KT 10SM CLR 15/12 A3003 RMK AO1
KFOT 182315Z AUTO 30009KT 10SM CLR 15/12 A3004 RMK AO1
KFOT 182255Z AUTO 30010KT 10SM CLR 15/12 A3004 RMK AO1
KFOT 182235Z AUTO 30011KT 10SM FEW010 15/12 A3004 RMK AO1
KFOT 182215Z AUTO 31011KT 10SM FEW010 15/12 A3005 RMK AO1
KFOT 182155Z AUTO 30012KT 10SM FEW012 15/12 A3006 RMK AO1
KFOT 182135Z AUTO 31010KT 10SM CLR 16/12 A3006 RMK AO1
KFOT 182115Z AUTO 30012KT 10SM CLR 15/12 A3006 RMK AO1
KFOT 182055Z AUTO 31013KT 10SM CLR 15/11 A3007 RMK AO1
KFOT 182035Z AUTO 31013KT 10SM CLR 16/11 A3007 RMK AO1
KFOT 182015Z AUTO 33011KT 10SM CLR 16/11 A3007 RMK AO1
KFOT 181955Z AUTO 31009KT 10SM CLR 17/11 A3007 RMK AO1
KFOT 181935Z AUTO 30008KT 10SM CLR 16/11 A3008 RMK AO1
KFOT 181915Z AUTO 31008KT 10SM CLR 16/10 A3008 RMK AO1
KFOT 181855Z AUTO 31007KT 10SM CLR 15/10 A3008 RMK AO1
KFOT 181835Z AUTO 31003KT 10SM CLR 15/09 A3008 RMK AO1
KFOT 181815Z AUTO 35003KT 10SM CLR 14/09 A3008 RMK AO1
KFOT 181755Z AUTO 00000KT 10SM CLR 13/09 A3009 RMK AO1
KFOT 181735Z AUTO 00000KT 10SM CLR 12/09 A3009 RMK AO1
KFOT 181715Z AUTO 00000KT 10SM CLR 11/08 A3009 RMK AO1
KFOT 181655Z AUTO 00000KT 10SM CLR 10/08 A3009 RMK AO1
KFOT 181635Z AUTO 00000KT 10SM CLR 09/08 A3009 RMK AO1
KFOT 181615Z AUTO 16003KT 10SM CLR 07/07 A3009 RMK AO1
KFOT 181555Z AUTO 14005KT 10SM CLR 07/07 A3008 RMK AO1
KFOT 181535Z AUTO 14006KT 10SM CLR 07/07 A3009 RMK AO1
KFOT 181515Z AUTO 14006KT M1/4SM VV000 05/05 A3008 RMK AO1
KFOT 181455Z AUTO 13006KT 1/2SM VV005 05/05 A3008 RMK AO1
KFOT 181435Z AUTO 15004KT 7SM CLR 05/05 A3007 RMK AO1
KFOT 181415Z AUTO 16005KT M1/4SM VV000 05/05 A3007 RMK AO1
KFOT 181355Z AUTO 12006KT 10SM CLR 06/06 A3007 RMK AO1
KFOT 181335Z AUTO 11007KT 10SM CLR 07/06 A3007 RMK AO1
KFOT 181315Z AUTO 14007KT M1/4SM BKN002 05/05 A3007 RMK AO1
KFOT 181255Z AUTO 14006KT 1/4SM OVC001 07/06 A3008 RMK AO1
KFOT 181235Z AUTO 14003KT M1/4SM OVC001 05/05 A3008 RMK AO1
KFOT 181215Z AUTO 16003KT M1/4SM OVC001 06/06 A3008 RMK AO1
KFOT 181155Z AUTO 00000KT M1/4SM OVC001 06/05 A3008 RMK AO1
KFOT 181135Z AUTO 00000KT M1/4SM OVC001 06/06 A3008 RMK AO1
KFOT 181115Z AUTO 00000KT M1/4SM OVC001 07/06 A3008 RMK AO1
KFOT 181055Z AUTO 00000KT 3/4SM BKN001 07/07 A3008 RMK AO1
KFOT 181035Z AUTO 13006KT 10SM CLR 08/07 A3008 RMK AO1
KFOT 181015Z AUTO 12007KT 10SM CLR 08/08 A3009 RMK AO1
KFOT 180955Z AUTO 12009KT 10SM CLR 08/08 A3008 RMK AO1
KFOT 180935Z AUTO 14008KT 10SM CLR 07/07 A3009 RMK AO1
KFOT 180915Z AUTO 14007KT 3SM CLR 07/07 A3010 RMK AO1
KFOT 180855Z AUTO 14006KT 10SM CLR 08/08 A3010 RMK AO1
KFOT 180835Z AUTO 12008KT 10SM CLR 08/08 A3010 RMK AO1
KFOT 180815Z AUTO 14006KT 10SM CLR 08/08 A3010 RMK AO1
KFOT 180755Z AUTO 14005KT 10SM CLR 08/08 A3011 RMK AO1
KFOT 180735Z AUTO 15004KT 9SM CLR 08/08 A3012 RMK AO1
KFOT 180715Z AUTO 15003KT 9SM CLR 08/08 A3013 RMK AO1
KFOT 180655Z AUTO 14006KT 10SM CLR 09/08 A3013 RMK AO1
KFOT 180635Z AUTO 14006KT 10SM CLR 08/08 A3013 RMK AO1
KFOT 180615Z AUTO 10007KT 10SM CLR 09/09 A3013 RMK AO1
KFOT 180555Z AUTO 10007KT 10SM CLR 09/09 A3014 RMK AO1
KFOT 180535Z AUTO 11008KT 10SM CLR 08/08 A3014 RMK AO1
KFOT 180515Z AUTO 13004KT 10SM CLR 09/08 A3014 RMK AO1
KFOT 180455Z AUTO 00000KT 10SM CLR 10/09 A3015 RMK AO1
KFOT 180435Z AUTO 23003KT 10SM CLR 10/09 A3015 RMK AO1
KFOT 180415Z AUTO 26004KT 10SM CLR 09/09 A3015 RMK AO1
KFOT 180355Z AUTO 31004KT 10SM CLR 08/08 A3015 RMK AO1
KFOT 180335Z AUTO 32006KT 10SM CLR 09/08 A3014 RMK AO1
KFOT 180315Z AUTO 00000KT 10SM CLR 10/09 A3013 RMK AO1
KFOT 180255Z AUTO 08003KT 10SM CLR 10/09 A3012 RMK AO1
KFOT 180235Z AUTO 00000KT 10SM CLR 10/09 A3013 RMK AO1
KFOT 180215Z AUTO 00000KT 10SM CLR 11/09 A3014 RMK AO1
KFOT 180155Z AUTO 00000KT 10SM CLR 11/09 A3013 RMK AO1
KFOT 180135Z AUTO 28007KT 10SM CLR 12/09 A3013 RMK AO1
KFOT 180115Z AUTO 29008KT 10SM CLR 13/09 A3013 RMK AO1
KFOT 180055Z AUTO 29006KT 10SM CLR 13/09 A3012 RMK AO1
KFOT 180035Z AUTO 29008KT 10SM CLR 14/09 A3013 RMK AO1
KFOT 180015Z AUTO 29005KT 10SM CLR 14/09 A3013 RMK AO1
KFOT 172355Z AUTO 26009KT 10SM CLR 14/10 A3013 RMK AO1
KFOT 172335Z AUTO 27009KT 10SM CLR 15/10 A3014 RMK AO1
KFOT 172315Z AUTO 28008KT 10SM CLR 15/10 A3014 RMK AO1
KFOT 172255Z AUTO 28012G17KT 10SM CLR 15/09 A3015 RMK AO1